Time;durP1;ratioP1;P1;durP2;ratioP2;P2;SDS_P1;SDS_P2;PMS_P1;PMS_P2;Temp;Humidity;BMP_temperature;BMP_pressure;BME280_temperature;BME280_humidity;BME280_pressure;Samples;Min_cycle;Max_cycle;Signal;HPM_P1;HPM_P2
2022/01/29 00:02:18;;;;;;;28.02;7.85;;;7.30;99.90;;;;;;6243093;22;20016;-79
2022/01/29 00:04:46;;;;;;;27.15;6.10;;;7.30;99.90;;;;;;6271155;22;20022;-78
2022/01/29 00:07:13;;;;;;;11.10;3.75;;;7.30;99.90;;;;;;6243085;22;20107;-79
2022/01/29 00:09:39;;;;;;;19.58;6.30;;;7.40;99.90;;;;;;6241024;22;20036;-78
2022/01/29 00:12:04;;;;;;;17.20;5.05;;;7.40;99.90;;;;;;6242223;22;20046;-78
2022/01/29 00:14:30;;;;;;;23.60;6.22;;;7.40;99.90;;;;;;6270757;22;20090;-79
2022/01/29 00:16:56;;;;;;;21.63;5.80;;;7.40;99.90;;;;;;6244043;22;20026;-79
2022/01/29 00:19:21;;;;;;;26.67;6.15;;;7.40;99.90;;;;;;6242928;22;20012;-78
2022/01/29 00:21:47;;;;;;;13.75;4.40;;;7.40;99.90;;;;;;6244034;22;20016;-79
2022/01/29 00:24:13;;;;;;;17.92;5.63;;;7.40;99.90;;;;;;6243220;22;20020;-79
2022/01/29 00:26:39;;;;;;;17.33;5.30;;;7.40;99.90;;;;;;6243162;22;20430;-77
2022/01/29 00:29:10;;;;;;;15.52;5.03;;;7.50;99.90;;;;;;6242661;22;20409;-77
2022/01/29 00:31:36;;;;;;;25.27;7.03;;;7.50;99.90;;;;;;6243489;22;20090;-76
2022/01/29 00:34:02;;;;;;;24.58;7.38;;;7.50;99.90;;;;;;6241610;22;20031;-78
2022/01/29 00:36:27;;;;;;;16.40;4.00;;;7.50;99.90;;;;;;6241418;22;20019;-77
2022/01/29 00:38:53;;;;;;;15.20;4.57;;;7.50;99.90;;;;;;6240257;22;20098;-78
2022/01/29 00:41:22;;;;;;;19.63;6.15;;;7.50;99.90;;;;;;6238993;22;20352;-78
2022/01/29 00:43:47;;;;;;;23.83;6.28;;;7.60;99.90;;;;;;6241390;22;20078;-78
2022/01/29 00:46:13;;;;;;;18.45;4.00;;;7.50;99.90;;;;;;6242899;22;20093;-77
2022/01/29 00:48:38;;;;;;;16.08;4.82;;;7.50;99.90;;;;;;6239933;22;20023;-78
2022/01/29 00:51:04;;;;;;;24.83;7.13;;;7.50;99.90;;;;;;6239905;22;20373;-77
2022/01/29 00:53:30;;;;;;;20.75;5.40;;;7.50;99.90;;;;;;6241325;22;20022;-78
2022/01/29 00:55:55;;;;;;;25.58;6.55;;;7.50;99.90;;;;;;6239044;22;20103;-77
2022/01/29 00:58:21;;;;;;;18.65;5.47;;;7.50;99.90;;;;;;6239795;22;20023;-78
2022/01/29 01:00:47;;;;;;;13.95;4.85;;;7.50;99.90;;;;;;6269413;22;20415;-79
2022/01/29 01:03:12;;;;;;;17.42;5.45;;;7.60;99.90;;;;;;6244805;22;20088;-77
2022/01/29 01:05:38;;;;;;;20.80;6.90;;;7.60;99.90;;;;;;6243914;22;20372;-78
2022/01/29 01:08:08;;;;;;;23.95;6.80;;;7.50;99.90;;;;;;6244954;22;20106;-78
2022/01/29 01:10:34;;;;;;;22.13;6.60;;;7.50;99.90;;;;;;6242662;22;20020;-78
2022/01/29 01:12:59;;;;;;;21.30;6.07;;;7.60;99.90;;;;;;6243240;22;20401;-78
2022/01/29 01:15:25;;;;;;;22.70;6.95;;;7.60;99.90;;;;;;6242186;22;20073;-78
2022/01/29 01:17:51;;;;;;;21.98;7.10;;;7.60;99.90;;;;;;6244167;22;20387;-78
2022/01/29 01:20:18;;;;;;;18.25;6.63;;;7.60;99.90;;;;;;6243972;22;20058;-78
2022/01/29 01:22:43;;;;;;;19.38;5.95;;;7.60;99.90;;;;;;6244078;22;20459;-78
2022/01/29 01:25:09;;;;;;;19.20;6.85;;;7.60;99.90;;;;;;6240249;22;20026;-78
2022/01/29 01:27:35;;;;;;;15.88;6.15;;;7.60;99.90;;;;;;6240909;22;20439;-78
2022/01/29 01:30:01;;;;;;;26.67;6.75;;;7.70;99.90;;;;;;6242666;22;20026;-78
2022/01/29 01:32:26;;;;;;;21.52;6.82;;;7.70;99.90;;;;;;6243075;22;20012;-78
2022/01/29 01:34:55;;;;;;;15.95;6.13;;;7.70;99.90;;;;;;6243484;22;20132;-79
2022/01/29 01:37:34;;;;;;;20.55;7.95;;;7.70;99.90;;;;;;6242142;22;20336;-78
2022/01/29 01:40:01;;;;;;;23.40;7.72;;;7.70;99.90;;;;;;6217299;22;20295;-78
2022/01/29 01:42:27;;;;;;;11.68;4.82;;;7.80;99.90;;;;;;6242580;22;20027;-78
2022/01/29 01:44:53;;;;;;;26.13;8.05;;;7.80;99.90;;;;;;6242383;22;20050;-78
2022/01/29 01:47:19;;;;;;;17.17;7.18;;;7.80;99.90;;;;;;6242822;22;20023;-78
2022/01/29 01:49:45;;;;;;;20.05;4.57;;;7.90;99.90;;;;;;6243287;22;20054;-78
2022/01/29 01:52:12;;;;;;;28.95;7.95;;;7.90;99.90;;;;;;6241664;22;20020;-77
2022/01/29 01:54:39;;;;;;;19.77;5.82;;;7.90;99.90;;;;;;6242797;22;20186;-80
2022/01/29 01:57:05;;;;;;;29.05;8.93;;;7.90;99.90;;;;;;6269285;22;20086;-78
2022/01/29 01:59:31;;;;;;;18.65;6.90;;;7.90;99.90;;;;;;6269570;22;20039;-78
2022/01/29 02:01:57;;;;;;;29.65;6.63;;;8.00;99.90;;;;;;6270113;22;20087;-78
2022/01/29 02:04:23;;;;;;;16.83;5.70;;;8.00;99.90;;;;;;6242216;22;20093;-77
2022/01/29 02:06:51;;;;;;;27.55;8.98;;;8.00;99.90;;;;;;6270554;22;20015;-79
2022/01/29 02:09:19;;;;;;;18.95;7.63;;;8.00;99.90;;;;;;6242698;22;20020;-79
2022/01/29 02:11:54;;;;;;;20.70;7.78;;;8.00;99.90;;;;;;6242038;22;20018;-79
2022/01/29 02:14:23;;;;;;;22.98;6.65;;;8.00;99.90;;;;;;6242359;22;20402;-79
2022/01/29 02:16:49;;;;;;;21.80;8.43;;;8.00;99.90;;;;;;6245332;22;20015;-78
2022/01/29 02:19:15;;;;;;;28.35;9.38;;;8.00;99.90;;;;;;6204999;22;20251;-78
2022/01/29 02:21:44;;;;;;;23.30;6.45;;;8.00;99.90;;;;;;6244852;22;20011;-78
2022/01/29 02:24:09;;;;;;;19.25;6.38;;;8.00;99.90;;;;;;6244364;22;20027;-78
2022/01/29 02:26:35;;;;;;;28.27;10.63;;;8.00;99.90;;;;;;6210214;23;20008;-79
2022/01/29 02:29:01;;;;;;;28.13;9.75;;;8.00;99.90;;;;;;6238649;22;20046;-78
2022/01/29 02:31:26;;;;;;;24.52;7.78;;;8.00;99.90;;;;;;6236855;22;20027;-79
2022/01/29 02:33:55;;;;;;;18.95;8.05;;;8.00;99.90;;;;;;6274412;22;20047;-79
2022/01/29 02:36:21;;;;;;;16.42;6.32;;;8.00;99.90;;;;;;6244406;22;20349;-79
2022/01/29 02:38:46;;;;;;;17.35;7.10;;;8.00;99.90;;;;;;6245076;22;20020;-79
2022/01/29 02:41:12;;;;;;;24.80;7.90;;;8.00;99.90;;;;;;6242790;22;20027;-78
2022/01/29 02:43:48;;;;;;;12.63;5.55;;;8.00;99.90;;;;;;6244662;22;20236;-79
2022/01/29 02:48:52;;;;;;;31.75;9.68;;;8.00;99.90;;;;;;6245193;22;20023;-79
2022/01/29 02:51:19;;;;;;;26.52;8.65;;;8.00;99.90;;;;;;6218246;22;20030;-80
2022/01/29 02:53:45;;;;;;;19.50;6.90;;;8.00;99.90;;;;;;6243865;22;20100;-79
2022/01/29 02:56:11;;;;;;;19.65;6.68;;;8.00;99.90;;;;;;6242451;22;20116;-78
2022/01/29 02:58:37;;;;;;;32.90;10.13;;;8.00;99.90;;;;;;6244257;22;20024;-79
2022/01/29 03:01:04;;;;;;;24.45;8.15;;;8.00;99.90;;;;;;6242682;22;20020;-78
2022/01/29 03:03:30;;;;;;;24.85;8.57;;;8.00;99.90;;;;;;6244606;22;20100;-79
2022/01/29 03:05:56;;;;;;;26.65;7.78;;;8.00;99.90;;;;;;6244190;22;20019;-79
2022/01/29 03:08:21;;;;;;;20.60;9.48;;;8.00;99.90;;;;;;6243648;22;20335;-79
2022/01/29 03:10:47;;;;;;;26.05;8.00;;;8.00;99.90;;;;;;6243693;22;20050;-79
2022/01/29 03:13:13;;;;;;;33.97;10.20;;;8.00;99.90;;;;;;6243705;22;20043;-79
2022/01/29 03:15:39;;;;;;;30.40;11.27;;;8.00;99.90;;;;;;6244049;22;20020;-79
2022/01/29 03:18:05;;;;;;;25.15;9.93;;;8.00;99.90;;;;;;6243045;22;20099;-78
2022/01/29 03:20:31;;;;;;;26.58;9.88;;;8.00;99.90;;;;;;6244474;22;20439;-79
2022/01/29 03:22:57;;;;;;;38.35;12.02;;;8.10;99.90;;;;;;6243446;22;20497;-78
2022/01/29 03:25:23;;;;;;;29.80;10.70;;;8.00;99.90;;;;;;6270027;22;20015;-78
2022/01/29 03:27:49;;;;;;;25.95;11.70;;;8.10;99.90;;;;;;6244059;22;20011;-78
2022/01/29 03:30:14;;;;;;;26.90;11.02;;;8.10;99.90;;;;;;6242836;22;20043;-78
2022/01/29 03:32:40;;;;;;;29.92;10.98;;;8.10;99.90;;;;;;6244223;22;20016;-79
2022/01/29 03:35:07;;;;;;;35.70;13.43;;;8.10;99.90;;;;;;6243898;22;20080;-79
2022/01/29 03:37:35;;;;;;;32.35;11.50;;;8.10;99.90;;;;;;6272538;22;20034;-78
2022/01/29 03:40:04;;;;;;;29.85;8.85;;;8.10;99.90;;;;;;6231788;22;20024;-78
2022/01/29 03:42:34;;;;;;;28.45;10.60;;;8.10;99.90;;;;;;6244913;22;20074;-79
2022/01/29 03:45:00;;;;;;;16.13;7.35;;;8.20;99.90;;;;;;6243573;22;20020;-79
2022/01/29 03:47:26;;;;;;;27.52;11.00;;;8.20;99.90;;;;;;6242616;22;20016;-79
2022/01/29 03:49:51;;;;;;;27.50;11.18;;;8.20;99.90;;;;;;6245501;22;20355;-79
2022/01/29 03:52:17;;;;;;;31.10;10.63;;;8.20;99.90;;;;;;6244379;22;20062;-77
2022/01/29 03:54:45;;;;;;;32.42;10.85;;;8.20;99.90;;;;;;6242242;22;20019;-79
2022/01/29 03:57:11;;;;;;;19.42;8.20;;;8.20;99.90;;;;;;6241002;22;20099;-77
2022/01/29 03:59:36;;;;;;;18.50;8.68;;;8.30;99.90;;;;;;6251329;22;20072;-79
2022/01/29 04:02:02;;;;;;;24.88;8.85;;;8.30;99.90;;;;;;6244247;22;20135;-77
2022/01/29 04:04:28;;;;;;;17.48;7.35;;;8.30;99.90;;;;;;6255864;22;20081;-78
2022/01/29 04:06:54;;;;;;;27.08;7.85;;;8.40;99.90;;;;;;6254281;22;20483;-78
2022/01/29 04:09:21;;;;;;;26.15;10.63;;;8.40;99.90;;;;;;6243552;22;20032;-77
2022/01/29 04:11:46;;;;;;;20.33;7.90;;;8.40;99.90;;;;;;6242964;22;20008;-78
2022/01/29 04:14:17;;;;;;;22.85;10.80;;;8.40;99.90;;;;;;6242157;22;20526;-78
2022/01/29 04:16:44;;;;;;;25.70;9.40;;;8.40;99.90;;;;;;6242836;22;20012;-79
2022/01/29 04:19:10;;;;;;;17.92;8.02;;;8.30;99.90;;;;;;6243037;22;20105;-78
2022/01/29 04:21:36;;;;;;;19.05;10.65;;;8.40;99.90;;;;;;6271105;22;20020;-78
2022/01/29 04:24:02;;;;;;;20.55;9.45;;;8.30;99.90;;;;;;6243534;22;20303;-78
2022/01/29 04:26:34;;;;;;;26.52;10.15;;;8.40;99.90;;;;;;6242524;22;20340;-80
2022/01/29 04:29:02;;;;;;;24.17;10.73;;;8.40;99.90;;;;;;6243161;22;20018;-80
2022/01/29 04:31:36;;;;;;;17.60;9.00;;;8.40;99.90;;;;;;6243696;22;20012;-79
2022/01/29 04:34:03;;;;;;;27.15;11.30;;;8.40;99.90;;;;;;6243274;22;20027;-77
2022/01/29 04:36:29;;;;;;;17.52;8.10;;;8.40;99.90;;;;;;6244071;22;20552;-79
2022/01/29 04:38:54;;;;;;;22.40;9.40;;;8.40;99.90;;;;;;6242038;22;20028;-80
2022/01/29 04:41:21;;;;;;;28.70;11.65;;;8.40;99.90;;;;;;6241025;22;20479;-79
2022/01/29 04:43:47;;;;;;;24.83;10.90;;;8.40;99.90;;;;;;6242663;22;20008;-78
2022/01/29 04:46:14;;;;;;;24.67;10.50;;;8.50;99.90;;;;;;6241015;22;20410;-79
2022/01/29 04:48:39;;;;;;;26.48;11.60;;;8.50;99.90;;;;;;6241744;22;20447;-78
2022/01/29 04:51:05;;;;;;;23.50;10.80;;;8.50;99.90;;;;;;6241493;22;20023;-77
2022/01/29 04:53:31;;;;;;;23.75;8.82;;;8.50;99.90;;;;;;6242102;22;20085;-78
2022/01/29 04:55:56;;;;;;;29.05;10.50;;;8.50;99.90;;;;;;6241521;22;20509;-78
2022/01/29 04:58:22;;;;;;;18.90;8.45;;;8.50;99.90;;;;;;6241761;22;20008;-78
2022/01/29 05:00:48;;;;;;;32.35;10.60;;;8.50;99.90;;;;;;6242900;22;20075;-78
2022/01/29 05:03:14;;;;;;;19.88;8.20;;;8.50;99.90;;;;;;6242362;22;20023;-78
2022/01/29 05:05:41;;;;;;;24.77;11.43;;;8.50;99.90;;;;;;6241142;22;20058;-78
2022/01/29 05:08:08;;;;;;;27.00;11.63;;;8.50;99.90;;;;;;6240678;22;20031;-78
2022/01/29 05:10:37;;;;;;;23.90;11.13;;;8.60;99.90;;;;;;6241409;22;20024;-78
2022/01/29 05:13:06;;;;;;;29.67;11.80;;;8.50;99.90;;;;;;6240398;22;20422;-77
2022/01/29 05:15:44;;;;;;;16.17;8.32;;;8.50;99.90;;;;;;6241446;22;20145;-78
2022/01/29 05:29:12;;;;;;;24.25;9.95;;;8.60;99.90;;;;;;6242334;22;20089;-78
2022/01/29 05:31:38;;;;;;;19.08;8.05;;;8.70;99.90;;;;;;6245436;22;20015;-78
2022/01/29 05:34:04;;;;;;;27.02;11.00;;;8.70;99.90;;;;;;6242966;22;20012;-78
2022/01/29 05:36:30;;;;;;;31.65;11.40;;;8.70;99.90;;;;;;6241387;22;20019;-79
2022/01/29 05:38:56;;;;;;;24.25;10.40;;;8.70;99.90;;;;;;6241860;22;20375;-78
2022/01/29 05:41:22;;;;;;;24.77;10.65;;;8.60;99.90;;;;;;6240933;22;20400;-77
2022/01/29 05:43:47;;;;;;;22.60;11.15;;;8.60;99.90;;;;;;6241994;22;20102;-78
2022/01/29 05:46:15;;;;;;;18.30;7.60;;;8.70;99.90;;;;;;6242393;22;20023;-79
2022/01/29 05:48:41;;;;;;;17.88;10.60;;;8.70;99.90;;;;;;6243064;22;20072;-79
2022/01/29 05:51:07;;;;;;;23.60;10.57;;;8.70;99.90;;;;;;6241973;22;20510;-78
2022/01/29 05:53:36;;;;;;;21.77;8.70;;;8.70;99.90;;;;;;6243168;22;20019;-78
2022/01/29 05:56:02;;;;;;;24.88;9.82;;;8.70;99.90;;;;;;6241287;22;20019;-78
2022/01/29 05:58:28;;;;;;;20.65;9.10;;;8.70;99.90;;;;;;6241878;22;20102;-79
2022/01/29 06:00:54;;;;;;;24.25;10.80;;;8.70;99.90;;;;;;6242114;22;20057;-79
2022/01/29 06:03:20;;;;;;;22.60;9.40;;;8.70;99.90;;;;;;6242271;22;20047;-79
2022/01/29 06:05:45;;;;;;;14.48;8.10;;;8.70;99.90;;;;;;6242120;22;20037;-79
2022/01/29 06:08:11;;;;;;;17.95;9.07;;;8.70;99.90;;;;;;6243343;22;20101;-78
2022/01/29 06:10:37;;;;;;;19.98;9.07;;;8.70;99.90;;;;;;6243759;22;20018;-79
2022/01/29 06:13:10;;;;;;;20.95;8.60;;;8.70;99.90;;;;;;6243152;22;20355;-78
2022/01/29 06:15:41;;;;;;;14.27;6.85;;;8.70;99.90;;;;;;6242917;22;20050;-78
2022/01/29 06:18:12;;;;;;;24.88;10.25;;;8.70;99.90;;;;;;6241993;22;20077;-78
2022/01/29 06:20:39;;;;;;;22.05;9.32;;;8.70;99.90;;;;;;6242599;22;20016;-79
2022/01/29 06:23:05;;;;;;;21.58;10.40;;;8.70;99.90;;;;;;6270463;22;20015;-78
2022/01/29 06:25:30;;;;;;;15.75;9.55;;;8.70;99.90;;;;;;6244234;22;20027;-77
2022/01/29 06:27:56;;;;;;;17.40;7.93;;;8.70;99.90;;;;;;6243009;22;20042;-78
2022/01/29 06:30:22;;;;;;;20.80;10.90;;;8.70;99.90;;;;;;6269430;22;20034;-79
2022/01/29 06:32:47;;;;;;;23.95;10.27;;;8.70;99.90;;;;;;6269644;22;20019;-79
2022/01/29 06:35:14;;;;;;;24.15;8.20;;;8.70;99.90;;;;;;6241622;22;20058;-79
2022/01/29 06:37:40;;;;;;;18.77;8.10;;;8.70;99.90;;;;;;6270581;22;20076;-79
2022/01/29 06:40:07;;;;;;;15.82;7.95;;;8.70;99.90;;;;;;6268113;22;20090;-79
2022/01/29 06:42:32;;;;;;;24.95;10.80;;;8.70;99.90;;;;;;6241867;22;20451;-79
2022/01/29 06:44:58;;;;;;;17.17;7.93;;;8.70;99.90;;;;;;6242900;22;20014;-78
2022/01/29 06:47:24;;;;;;;16.83;5.78;;;8.70;99.90;;;;;;6241308;22;20023;-78
2022/01/29 06:49:49;;;;;;;23.17;9.73;;;8.70;99.90;;;;;;6242244;22;20022;-78
2022/01/29 06:52:15;;;;;;;21.65;7.47;;;8.70;99.90;;;;;;6242648;22;20452;-78
2022/01/29 06:54:41;;;;;;;23.35;10.13;;;8.70;99.90;;;;;;6241287;22;20361;-78
2022/01/29 06:57:06;;;;;;;23.02;9.48;;;8.70;99.90;;;;;;6242266;22;20012;-78
2022/01/29 06:59:32;;;;;;;18.13;8.15;;;8.70;99.90;;;;;;6241650;22;20016;-79
2022/01/29 07:01:57;;;;;;;13.82;6.47;;;8.70;99.90;;;;;;6245125;22;20362;-78
2022/01/29 07:04:23;;;;;;;24.10;8.55;;;8.70;99.90;;;;;;6245261;22;20019;-79
2022/01/29 07:06:49;;;;;;;14.32;5.47;;;8.70;99.90;;;;;;6243560;22;20024;-79
2022/01/29 07:09:14;;;;;;;17.48;8.07;;;8.70;99.90;;;;;;6244441;22;20019;-79
2022/01/29 07:11:44;;;;;;;15.20;5.85;;;8.70;99.90;;;;;;6242995;22;20016;-78
2022/01/29 07:14:16;;;;;;;21.50;7.70;;;8.70;99.90;;;;;;6242713;22;20355;-78
2022/01/29 07:16:43;;;;;;;15.35;7.65;;;8.70;99.90;;;;;;6271179;22;20295;-78
2022/01/29 07:19:09;;;;;;;22.20;8.18;;;8.70;99.90;;;;;;6243692;22;20049;-79
2022/01/29 07:21:36;;;;;;;22.58;8.20;;;8.70;99.90;;;;;;6243597;22;20022;-80
2022/01/29 07:24:02;;;;;;;18.50;8.20;;;8.70;99.90;;;;;;6243885;22;20020;-78
2022/01/29 07:26:28;;;;;;;19.65;7.28;;;8.70;99.90;;;;;;6243814;22;20027;-79
2022/01/29 07:28:53;;;;;;;19.60;9.25;;;8.70;99.90;;;;;;6242164;22;20007;-79
2022/01/29 07:31:20;;;;;;;23.55;10.68;;;8.70;99.90;;;;;;6243784;22;20024;-78
2022/01/29 07:33:46;;;;;;;18.77;7.60;;;8.70;99.90;;;;;;6244784;22;20012;-79
2022/01/29 07:36:11;;;;;;;20.10;7.72;;;8.70;99.90;;;;;;6242583;22;20690;-77
2022/01/29 07:38:37;;;;;;;18.30;9.00;;;8.60;99.90;;;;;;6244619;22;20016;-78
2022/01/29 07:41:03;;;;;;;12.07;5.57;;;8.60;99.90;;;;;;6243409;22;20038;-80
2022/01/29 07:43:28;;;;;;;20.52;8.05;;;8.60;99.90;;;;;;6242312;22;20106;-79
2022/01/29 07:45:54;;;;;;;14.23;5.13;;;8.60;99.90;;;;;;6243146;22;20371;-78
2022/01/29 07:48:19;;;;;;;21.80;8.15;;;8.60;99.90;;;;;;6243769;22;20138;-78
2022/01/29 07:50:45;;;;;;;19.90;8.77;;;8.60;99.90;;;;;;6242386;22;20026;-78
2022/01/29 07:53:11;;;;;;;20.25;8.73;;;8.60;99.90;;;;;;6242006;22;20030;-79
2022/01/29 07:55:36;;;;;;;14.18;5.82;;;8.60;99.90;;;;;;6241115;22;20015;-78
2022/01/29 07:58:05;;;;;;;15.30;6.10;;;8.60;99.90;;;;;;6242415;22;20390;-77
2022/01/29 08:00:30;;;;;;;18.80;7.32;;;8.60;99.90;;;;;;6242699;22;20016;-78
2022/01/29 08:02:56;;;;;;;19.98;5.90;;;8.70;99.90;;;;;;6243602;22;20605;-78
2022/01/29 08:05:22;;;;;;;18.10;8.20;;;8.70;99.90;;;;;;6242678;22;20412;-78
2022/01/29 08:07:48;;;;;;;22.67;7.70;;;8.70;99.90;;;;;;6244000;22;20352;-79
2022/01/29 08:10:15;;;;;;;17.92;7.20;;;8.70;99.90;;;;;;6269179;22;20020;-78
2022/01/29 08:12:40;;;;;;;12.38;6.50;;;8.70;99.90;;;;;;6271602;22;20030;-78
2022/01/29 08:15:08;;;;;;;14.77;5.38;;;8.70;99.90;;;;;;6271056;22;20028;-76
2022/01/29 08:17:34;;;;;;;19.52;5.07;;;8.70;99.90;;;;;;6270308;22;20016;-78
2022/01/29 08:20:00;;;;;;;15.50;6.32;;;8.70;99.90;;;;;;6269236;22;20459;-78
2022/01/29 08:22:26;;;;;;;16.80;6.80;;;8.70;99.90;;;;;;6269774;22;20091;-78
2022/01/29 08:24:52;;;;;;;13.13;5.53;;;8.80;99.90;;;;;;6226103;22;20081;-79
2022/01/29 08:27:19;;;;;;;17.05;6.63;;;8.80;99.90;;;;;;6242327;22;20037;-80
2022/01/29 08:29:45;;;;;;;15.93;5.57;;;8.90;99.90;;;;;;6266866;22;20031;-78
2022/01/29 08:32:11;;;;;;;18.88;5.63;;;8.90;99.90;;;;;;6242667;22;20027;-78
2022/01/29 08:34:38;;;;;;;14.45;5.53;;;8.90;99.90;;;;;;6244785;22;20056;-77
2022/01/29 08:37:04;;;;;;;15.43;5.28;;;8.90;99.90;;;;;;6246599;22;20018;-78
2022/01/29 08:39:30;;;;;;;19.95;5.72;;;9.00;99.90;;;;;;6217192;22;20383;-79
2022/01/29 08:41:56;;;;;;;13.80;6.30;;;9.00;99.90;;;;;;6243577;22;20107;-79
2022/01/29 08:44:22;;;;;;;12.23;4.30;;;9.00;99.90;;;;;;6243499;22;20016;-78
2022/01/29 08:46:48;;;;;;;12.13;4.25;;;9.00;99.90;;;;;;6241787;22;20015;-78
2022/01/29 08:49:13;;;;;;;13.70;6.20;;;9.00;99.90;;;;;;6243888;22;20447;-77
2022/01/29 08:51:40;;;;;;;14.20;4.50;;;9.10;99.90;;;;;;6253753;22;20015;-77
2022/01/29 08:54:11;;;;;;;13.07;5.07;;;9.10;99.90;;;;;;6258126;22;20072;-77
2022/01/29 08:56:36;;;;;;;11.63;4.40;;;9.10;99.90;;;;;;6247563;22;20333;-78
2022/01/29 08:59:02;;;;;;;9.30;4.72;;;9.10;99.90;;;;;;6268065;22;20041;-78
2022/01/29 09:01:28;;;;;;;14.35;4.47;;;9.10;99.90;;;;;;6243352;22;20094;-78
2022/01/29 09:03:54;;;;;;;11.90;4.55;;;9.20;99.90;;;;;;6242141;22;20042;-78
2022/01/29 09:06:20;;;;;;;16.88;4.88;;;9.20;99.90;;;;;;6241539;22;20427;-78
2022/01/29 09:08:48;;;;;;;12.73;4.55;;;9.20;99.90;;;;;;6237699;22;20015;-79
2022/01/29 09:11:15;;;;;;;7.07;3.25;;;9.20;99.90;;;;;;6241782;22;20016;-78
2022/01/29 09:13:41;;;;;;;12.00;3.70;;;9.20;99.90;;;;;;6244214;22;20049;-78
2022/01/29 09:16:07;;;;;;;14.00;3.20;;;9.30;99.90;;;;;;6243992;22;20094;-73
2022/01/29 09:18:33;;;;;;;8.90;3.17;;;9.30;99.90;;;;;;6221378;23;20135;-78
2022/01/29 09:20:59;;;;;;;5.60;2.92;;;9.30;99.90;;;;;;6224738;22;20339;-79
2022/01/29 09:23:25;;;;;;;7.85;3.90;;;9.40;99.90;;;;;;6244604;22;20020;-78
2022/01/29 09:25:51;;;;;;;15.05;3.97;;;9.40;99.90;;;;;;6242985;22;20471;-77
2022/01/29 09:28:17;;;;;;;12.23;3.42;;;9.40;99.90;;;;;;6242730;22;20019;-79
2022/01/29 09:30:45;;;;;;;11.57;3.13;;;9.50;99.90;;;;;;6245723;22;20088;-80
2022/01/29 09:33:11;;;;;;;11.65;3.88;;;9.50;99.90;;;;;;6245010;22;20050;-78
2022/01/29 09:35:41;;;;;;;14.45;2.85;;;9.50;99.90;;;;;;6243067;22;20018;-78
2022/01/29 09:38:08;;;;;;;7.82;2.72;;;9.50;99.90;;;;;;6256011;22;20023;-77
2022/01/29 09:40:35;;;;;;;13.45;3.60;;;9.50;99.90;;;;;;6244395;22;20344;-79
2022/01/29 09:43:03;;;;;;;15.35;3.75;;;9.50;99.90;;;;;;6244216;22;20027;-79
2022/01/29 09:45:31;;;;;;;12.30;3.35;;;9.60;99.90;;;;;;6243643;22;20325;-78
2022/01/29 09:48:04;;;;;;;10.45;2.80;;;9.60;99.90;;;;;;6242226;22;20066;-78
2022/01/29 09:50:38;;;;;;;14.38;2.78;;;9.60;99.90;;;;;;6242993;22;20019;-79
2022/01/29 09:53:07;;;;;;;14.05;3.33;;;9.60;99.90;;;;;;6241058;22;20343;-78
2022/01/29 09:55:34;;;;;;;19.88;3.70;;;9.60;99.90;;;;;;6241880;22;20020;-79
2022/01/29 09:57:59;;;;;;;8.38;2.35;;;9.60;99.90;;;;;;6271682;22;20020;-79
2022/01/29 10:00:26;;;;;;;8.55;2.47;;;9.60;99.90;;;;;;6244347;22;20081;-79
2022/01/29 10:03:11;;;;;;;11.77;2.53;;;9.70;99.90;;;;;;6244340;22;20030;-78
2022/01/29 10:05:45;;;;;;;16.05;4.97;;;9.70;99.90;;;;;;6245235;22;20053;-78
2022/01/29 10:08:12;;;;;;;12.23;3.28;;;9.70;99.90;;;;;;6244990;22;20031;-80
2022/01/29 10:10:52;;;;;;;7.65;2.78;;;9.70;99.90;;;;;;6244644;22;20018;-78
2022/01/29 10:13:35;;;;;;;8.27;2.55;;;9.80;99.90;;;;;;6241214;22;20019;-78
2022/01/29 10:16:19;;;;;;;8.70;1.90;;;9.90;99.90;;;;;;6241629;22;20094;-77
2022/01/29 10:18:57;;;;;;;6.63;2.15;;;9.90;99.90;;;;;;6242495;22;20348;-79
2022/01/29 10:21:27;;;;;;;6.28;1.90;;;10.00;99.90;;;;;;6241883;22;20343;-78
2022/01/29 10:24:21;;;;;;;13.55;3.13;;;10.00;99.90;;;;;;6241654;22;20103;-79
2022/01/29 10:26:49;;;;;;;12.48;2.53;;;10.00;99.90;;;;;;6234492;22;20490;-78
2022/01/29 10:29:23;;;;;;;7.38;1.50;;;10.00;99.90;;;;;;6242046;22;20043;-78
2022/01/29 10:31:52;;;;;;;12.82;3.47;;;10.00;99.90;;;;;;6241352;22;20163;-79
2022/01/29 10:34:25;;;;;;;18.88;4.05;;;10.00;99.90;;;;;;6241728;22;20024;-79
2022/01/29 10:37:17;;;;;;;13.93;2.80;;;10.00;99.90;;;;;;6243898;22;20459;-78
2022/01/29 10:39:44;;;;;;;6.05;1.85;;;10.10;99.90;;;;;;6241719;22;20517;-78
2022/01/29 10:42:19;;;;;;;5.78;1.45;;;10.00;99.90;;;;;;6243848;22;20026;-77
2022/01/29 10:44:47;;;;;;;7.57;1.50;;;10.00;99.90;;;;;;6242909;22;20027;-79
2022/01/29 10:47:14;;;;;;;11.57;2.72;;;10.10;99.90;;;;;;6243489;22;20087;-78
2022/01/29 10:49:48;;;;;;;7.30;1.50;;;10.10;99.90;;;;;;6244804;22;20517;-77
2022/01/29 10:52:15;;;;;;;13.95;2.55;;;10.10;99.90;;;;;;6242294;22;20047;-78
2022/01/29 10:54:43;;;;;;;11.07;2.53;;;10.10;99.90;;;;;;6243169;22;20463;-77
2022/01/29 10:57:16;;;;;;;5.75;1.60;;;10.10;99.90;;;;;;6216885;22;20472;-79
2022/01/29 10:59:49;;;;;;;;;;;10.20;99.90;;;;;;6271113;22;20024;-78
2022/01/29 11:02:16;;;;;;;8.60;1.88;;;10.10;99.90;;;;;;6244217;22;19915;-77
2022/01/29 11:04:43;;;;;;;11.65;2.70;;;10.10;99.90;;;;;;6272409;22;20020;-78
2022/01/29 11:07:15;;;;;;;7.75;1.67;;;10.10;99.90;;;;;;6244452;22;20023;-77
2022/01/29 11:10:02;;;;;;;4.88;1.52;;;10.10;99.90;;;;;;6244732;22;20019;-79
2022/01/29 11:12:30;;;;;;;7.75;1.77;;;10.20;99.90;;;;;;6247301;22;20337;-78
2022/01/29 11:15:02;;;;;;;9.00;2.33;;;10.30;99.90;;;;;;6270492;22;20521;-80
2022/01/29 11:17:30;;;;;;;9.15;1.83;;;10.30;99.90;;;;;;6269815;22;20030;-77
2022/01/29 11:19:56;;;;;;;5.63;1.65;;;10.30;99.90;;;;;;6267775;22;20015;-78
2022/01/29 11:22:35;;;;;;;9.27;1.80;;;10.40;99.90;;;;;;6256269;22;20013;-77
2022/01/29 11:25:07;;;;;;;10.82;2.30;;;10.40;99.90;;;;;;6267683;22;20016;-77
2022/01/29 11:27:37;;;;;;;10.77;2.30;;;10.40;99.90;;;;;;6266952;22;20120;-78
2022/01/29 11:30:08;;;;;;;13.55;2.30;;;10.40;99.90;;;;;;6268361;22;20088;-78
2022/01/29 11:33:00;;;;;;;5.68;2.13;;;10.50;99.90;;;;;;6233069;22;20027;-78
2022/01/29 11:35:30;;;;;;;6.72;2.55;;;10.50;99.90;;;;;;6256107;22;20016;-78
2022/01/29 11:38:06;;;;;;;11.75;1.98;;;10.50;99.90;;;;;;6248053;22;20012;-77
2022/01/29 11:41:02;;;;;;;8.27;1.52;;;10.60;99.90;;;;;;6276186;22;20024;-78
2022/01/29 11:43:30;;;;;;;13.60;2.25;;;10.50;99.90;;;;;;6261329;22;20016;-78
2022/01/29 11:46:02;;;;;;;15.07;2.28;;;10.50;99.90;;;;;;6268434;22;20011;-78
2022/01/29 11:48:32;;;;;;;11.13;2.17;;;10.50;99.90;;;;;;6240056;22;20020;-78
2022/01/29 11:51:09;;;;;;;12.15;2.15;;;10.50;99.90;;;;;;6240142;22;20258;-78
2022/01/29 11:53:44;;;;;;;9.63;1.85;;;10.50;99.90;;;;;;6240275;22;20035;-77
2022/01/29 11:56:30;;;;;;;8.90;2.42;;;10.50;99.90;;;;;;6266894;22;20058;-78
2022/01/29 11:59:17;;;;;;;13.98;2.17;;;10.50;99.90;;;;;;6270360;22;20019;-78
2022/01/29 12:01:43;;;;;;;6.97;1.75;;;10.40;99.90;;;;;;6266950;22;20024;-78
2022/01/29 12:04:09;;;;;;;14.82;2.88;;;10.40;99.90;;;;;;6265803;22;20046;-78
2022/01/29 12:06:39;;;;;;;5.68;1.52;;;10.40;99.90;;;;;;6266884;22;20012;-79
2022/01/29 12:09:28;;;;;;;14.98;3.95;;;10.40;99.90;;;;;;6267002;22;20020;-76
2022/01/29 12:12:14;;;;;;;8.68;2.50;;;10.40;99.90;;;;;;6269400;22;20019;-77
2022/01/29 12:14:40;;;;;;;6.57;2.13;;;10.30;99.90;;;;;;6268546;22;20020;-77
2022/01/29 12:17:07;;;;;;;14.15;2.33;;;10.40;99.90;;;;;;6241281;22;20047;-77
2022/01/29 12:19:36;;;;;;;9.93;1.50;;;10.40;99.90;;;;;;6241791;22;20061;-77
2022/01/29 12:22:26;;;;;;;7.60;2.00;;;10.60;99.90;;;;;;6240508;22;20141;-76
2022/01/29 12:43:54;;;;;;;10.30;2.72;;;10.50;99.90;;;;;;6198919;23;20096;-75
2022/01/29 12:46:24;;;;;;;11.75;2.83;;;10.50;99.90;;;;;;6152175;23;20020;-75
2022/01/29 12:49:10;;;;;;;11.80;2.03;;;10.50;99.90;;;;;;6151984;23;20091;-75
2022/01/29 12:51:56;;;;;;;12.88;2.55;;;10.50;99.90;;;;;;6182024;23;20040;-75
2022/01/29 12:54:24;;;;;;;13.10;2.45;;;10.50;99.90;;;;;;6182066;23;20013;-74
2022/01/29 12:56:49;;;;;;;15.07;2.78;;;10.50;99.90;;;;;;6182618;23;20020;-74
2022/01/29 12:59:15;;;;;;;6.97;1.52;;;10.40;99.90;;;;;;6178641;23;20452;-74
2022/01/29 13:01:43;;;;;;;13.07;2.63;;;10.40;99.90;;;;;;6180705;23;20023;-74
2022/01/29 13:04:18;;;;;;;8.30;2.25;;;10.40;99.90;;;;;;6180524;23;20167;-76
2022/01/29 13:06:58;;;;;;;14.90;1.65;;;10.40;99.90;;;;;;6207393;23;20016;-80
2022/01/29 13:09:24;;;;;;;11.82;2.42;;;10.40;99.90;;;;;;6181737;23;20310;-78
2022/01/29 13:11:58;;;;;;;6.00;2.40;;;10.50;99.90;;;;;;6184063;23;20013;-79
2022/01/29 13:14:25;;;;;;;7.20;1.73;;;10.50;99.90;;;;;;6185977;23;20473;-78
2022/01/29 13:16:54;;;;;;;11.20;2.38;;;10.60;99.90;;;;;;6184025;23;20032;-78
2022/01/29 13:19:22;;;;;;;12.57;3.55;;;10.60;99.90;;;;;;6183349;23;20020;-79
2022/01/29 13:21:48;;;;;;;6.75;2.60;;;10.70;99.90;;;;;;6182016;23;20016;-79
2022/01/29 13:24:26;;;;;;;11.48;2.92;;;10.70;99.90;;;;;;6180333;23;20074;-79